Terminal Aerodrome Forecast
Issued by NWS

Current Version | Previous Version | Text Only | Print | Product List | Glossary On
Versions: 1 2 3 4 5 6 7 8 9 10 11 12 13 14 15 16 17 18 19 20 21 22 23 24
861
FTUS43 KMPX 080537
TAFAXN
TAF
KAXN 080537Z 0806/0906 33025G32KT 1 1/2SM -SN BLSN OVC025
      TEMPO 0806/0809 3SM -SN
     FM080900 33025G33KT 3SM -SN BLSN OVC015
     FM081600 34023G32KT P6SM BKN020
     FM082200 33018G28KT P6SM BKN025=

USA.gov is the U.S. government's official web portal to all federal, state and local government web resources and services.